sensor_id;sensor_type;location;lat;lon;timestamp;temperature;humidity
20364;DHT22;10340;53.664;9.908;2023-04-09T00:01:06;7.40;99.90
20364;DHT22;10340;53.664;9.908;2023-04-09T00:03:35;7.40;99.90
20364;DHT22;10340;53.664;9.908;2023-04-09T00:06:03;7.40;99.90
20364;DHT22;10340;53.664;9.908;2023-04-09T00:08:32;7.40;99.90
20364;DHT22;10340;53.664;9.908;2023-04-09T00:11:00;7.40;99.90
20364;DHT22;10340;53.664;9.908;2023-04-09T00:13:27;7.40;99.90
20364;DHT22;10340;53.664;9.908;2023-04-09T00:15:54;7.40;99.90
20364;DHT22;10340;53.664;9.908;2023-04-09T00:18:22;7.30;99.90
20364;DHT22;10340;53.664;9.908;2023-04-09T00:20:49;7.40;99.90
20364;DHT22;10340;53.664;9.908;2023-04-09T00:23:18;7.30;99.90
20364;DHT22;10340;53.664;9.908;2023-04-09T00:25:45;7.30;99.90
20364;DHT22;10340;53.664;9.908;2023-04-09T00:28:12;7.30;99.90
20364;DHT22;10340;53.664;9.908;2023-04-09T00:30:40;7.20;99.90
20364;DHT22;10340;53.664;9.908;2023-04-09T00:33:09;7.20;99.90
20364;DHT22;10340;53.664;9.908;2023-04-09T00:35:38;7.20;99.90
20364;DHT22;10340;53.664;9.908;2023-04-09T00:38:05;7.10;99.90
20364;DHT22;10340;53.664;9.908;2023-04-09T00:40:32;7.10;99.90
20364;DHT22;10340;53.664;9.908;2023-04-09T00:42:59;7.10;99.90
20364;DHT22;10340;53.664;9.908;2023-04-09T00:45:27;7.00;99.90
20364;DHT22;10340;53.664;9.908;2023-04-09T00:47:54;7.00;99.90
20364;DHT22;10340;53.664;9.908;2023-04-09T00:50:21;7.00;99.90
20364;DHT22;10340;53.664;9.908;2023-04-09T00:52:50;7.00;99.90
20364;DHT22;10340;53.664;9.908;2023-04-09T00:55:17;7.00;99.90
20364;DHT22;10340;53.664;9.908;2023-04-09T00:57:44;7.00;99.90
20364;DHT22;10340;53.664;9.908;2023-04-09T01:00:12;7.00;99.90
20364;DHT22;10340;53.664;9.908;2023-04-09T01:02:40;7.00;99.90
20364;DHT22;10340;53.664;9.908;2023-04-09T01:05:07;7.00;99.90
20364;DHT22;10340;53.664;9.908;2023-04-09T01:07:44;7.10;99.90
20364;DHT22;10340;53.664;9.908;2023-04-09T01:10:25;7.10;99.90
20364;DHT22;10340;53.664;9.908;2023-04-09T01:13:00;7.10;99.90
20364;DHT22;10340;53.664;9.908;2023-04-09T01:15:33;7.10;99.90
20364;DHT22;10340;53.664;9.908;2023-04-09T01:18:06;7.10;99.90
20364;DHT22;10340;53.664;9.908;2023-04-09T01:20:39;7.10;99.90
20364;DHT22;10340;53.664;9.908;2023-04-09T01:23:15;7.00;99.90
20364;DHT22;10340;53.664;9.908;2023-04-09T01:26:00;7.00;99.90
20364;DHT22;10340;53.664;9.908;2023-04-09T01:28:32;7.00;99.90
20364;DHT22;10340;53.664;9.908;2023-04-09T01:31:01;7.00;99.90
20364;DHT22;10340;53.664;9.908;2023-04-09T01:33:33;7.00;99.90
20364;DHT22;10340;53.664;9.908;2023-04-09T01:36:02;6.90;99.90
20364;DHT22;10340;53.664;9.908;2023-04-09T01:38:30;6.90;99.90
20364;DHT22;10340;53.664;9.908;2023-04-09T01:40:59;7.10;99.90
20364;DHT22;10340;53.664;9.908;2023-04-09T01:43:27;6.90;99.90
20364;DHT22;10340;53.664;9.908;2023-04-09T01:45:56;6.90;99.90
20364;DHT22;10340;53.664;9.908;2023-04-09T01:48:24;6.90;99.90
20364;DHT22;10340;53.664;9.908;2023-04-09T01:50:53;6.90;99.90
20364;DHT22;10340;53.664;9.908;2023-04-09T01:53:20;6.90;99.90
20364;DHT22;10340;53.664;9.908;2023-04-09T01:55:47;6.90;99.90
20364;DHT22;10340;53.664;9.908;2023-04-09T01:58:14;6.90;99.90
20364;DHT22;10340;53.664;9.908;2023-04-09T02:00:45;6.90;99.90
20364;DHT22;10340;53.664;9.908;2023-04-09T02:03:17;6.90;99.90
20364;DHT22;10340;53.664;9.908;2023-04-09T02:05:49;6.90;99.90
20364;DHT22;10340;53.664;9.908;2023-04-09T02:08:20;6.90;99.90
20364;DHT22;10340;53.664;9.908;2023-04-09T02:10:50;6.90;99.90
20364;DHT22;10340;53.664;9.908;2023-04-09T02:13:22;6.90;99.90
20364;DHT22;10340;53.664;9.908;2023-04-09T02:15:51;6.90;99.90
20364;DHT22;10340;53.664;9.908;2023-04-09T02:18:23;6.80;99.90
20364;DHT22;10340;53.664;9.908;2023-04-09T02:20:52;6.80;99.90
20364;DHT22;10340;53.664;9.908;2023-04-09T02:23:19;6.90;99.90
20364;DHT22;10340;53.664;9.908;2023-04-09T02:25:46;6.90;99.90
20364;DHT22;10340;53.664;9.908;2023-04-09T02:28:13;6.90;99.90
20364;DHT22;10340;53.664;9.908;2023-04-09T02:30:41;6.90;99.90
20364;DHT22;10340;53.664;9.908;2023-04-09T02:33:08;6.90;99.90
20364;DHT22;10340;53.664;9.908;2023-04-09T02:35:37;6.90;99.90
20364;DHT22;10340;53.664;9.908;2023-04-09T02:38:04;6.90;99.90
20364;DHT22;10340;53.664;9.908;2023-04-09T02:40:32;6.90;99.90
20364;DHT22;10340;53.664;9.908;2023-04-09T02:42:59;6.90;99.90
20364;DHT22;10340;53.664;9.908;2023-04-09T02:45:26;6.90;99.90
20364;DHT22;10340;53.664;9.908;2023-04-09T02:47:53;6.90;99.90
20364;DHT22;10340;53.664;9.908;2023-04-09T02:50:20;6.90;99.90
20364;DHT22;10340;53.664;9.908;2023-04-09T02:52:49;6.90;99.90
20364;DHT22;10340;53.664;9.908;2023-04-09T02:55:18;6.90;99.90
20364;DHT22;10340;53.664;9.908;2023-04-09T02:57:45;6.90;99.90
20364;DHT22;10340;53.664;9.908;2023-04-09T03:00:12;6.90;99.90
20364;DHT22;10340;53.664;9.908;2023-04-09T03:02:39;6.90;99.90
20364;DHT22;10340;53.664;9.908;2023-04-09T03:05:07;6.90;99.90
20364;DHT22;10340;53.664;9.908;2023-04-09T03:07:34;6.90;99.90
20364;DHT22;10340;53.664;9.908;2023-04-09T03:10:03;6.90;99.90
20364;DHT22;10340;53.664;9.908;2023-04-09T03:12:30;6.90;99.90
20364;DHT22;10340;53.664;9.908;2023-04-09T03:14:57;6.90;99.90
20364;DHT22;10340;53.664;9.908;2023-04-09T03:17:24;6.90;99.90
20364;DHT22;10340;53.664;9.908;2023-04-09T03:19:51;6.90;99.90
20364;DHT22;10340;53.664;9.908;2023-04-09T03:22:18;6.90;99.90
20364;DHT22;10340;53.664;9.908;2023-04-09T03:24:45;6.90;99.90
20364;DHT22;10340;53.664;9.908;2023-04-09T03:27:14;6.90;99.90
20364;DHT22;10340;53.664;9.908;2023-04-09T03:29:41;6.90;99.90
20364;DHT22;10340;53.664;9.908;2023-04-09T03:32:08;6.90;99.90
20364;DHT22;10340;53.664;9.908;2023-04-09T03:34:36;6.90;99.90
20364;DHT22;10340;53.664;9.908;2023-04-09T03:37:03;7.20;99.90
20364;DHT22;10340;53.664;9.908;2023-04-09T03:39:30;7.00;99.90
20364;DHT22;10340;53.664;9.908;2023-04-09T03:41:57;7.00;99.90
20364;DHT22;10340;53.664;9.908;2023-04-09T03:44:25;7.00;99.90
20364;DHT22;10340;53.664;9.908;2023-04-09T03:46:52;7.00;99.90
20364;DHT22;10340;53.664;9.908;2023-04-09T03:49:19;7.00;99.90
20364;DHT22;10340;53.664;9.908;2023-04-09T03:51:46;7.00;99.90
20364;DHT22;10340;53.664;9.908;2023-04-09T03:54:13;7.00;99.90
20364;DHT22;10340;53.664;9.908;2023-04-09T03:56:41;7.00;99.90
20364;DHT22;10340;53.664;9.908;2023-04-09T03:59:08;7.00;99.90
20364;DHT22;10340;53.664;9.908;2023-04-09T04:01:36;7.00;99.90
20364;DHT22;10340;53.664;9.908;2023-04-09T04:04:03;7.00;99.90
20364;DHT22;10340;53.664;9.908;2023-04-09T04:06:32;7.00;99.90
20364;DHT22;10340;53.664;9.908;2023-04-09T04:08:59;7.00;99.90
20364;DHT22;10340;53.664;9.908;2023-04-09T04:11:26;7.00;99.90
20364;DHT22;10340;53.664;9.908;2023-04-09T04:13:54;7.00;99.90
20364;DHT22;10340;53.664;9.908;2023-04-09T04:16:21;7.00;99.90
20364;DHT22;10340;53.664;9.908;2023-04-09T04:18:49;7.00;99.90
20364;DHT22;10340;53.664;9.908;2023-04-09T04:21:16;7.00;99.90
20364;DHT22;10340;53.664;9.908;2023-04-09T04:23:43;7.00;99.90
20364;DHT22;10340;53.664;9.908;2023-04-09T04:26:11;7.00;99.90
20364;DHT22;10340;53.664;9.908;2023-04-09T04:28:38;7.00;99.90
20364;DHT22;10340;53.664;9.908;2023-04-09T04:31:09;6.90;99.90
20364;DHT22;10340;53.664;9.908;2023-04-09T04:33:37;6.90;99.90
20364;DHT22;10340;53.664;9.908;2023-04-09T04:36:07;6.90;99.90
20364;DHT22;10340;53.664;9.908;2023-04-09T04:38:35;6.90;99.90
20364;DHT22;10340;53.664;9.908;2023-04-09T04:41:02;6.90;99.90
20364;DHT22;10340;53.664;9.908;2023-04-09T04:43:29;6.90;99.90
20364;DHT22;10340;53.664;9.908;2023-04-09T04:45:57;6.90;99.90
20364;DHT22;10340;53.664;9.908;2023-04-09T04:48:24;6.90;99.90
20364;DHT22;10340;53.664;9.908;2023-04-09T04:50:58;6.90;99.90
20364;DHT22;10340;53.664;9.908;2023-04-09T04:53:26;6.90;99.90
20364;DHT22;10340;53.664;9.908;2023-04-09T04:55:54;6.90;99.90
20364;DHT22;10340;53.664;9.908;2023-04-09T04:58:21;6.90;99.90
20364;DHT22;10340;53.664;9.908;2023-04-09T05:00:48;6.90;99.90
20364;DHT22;10340;53.664;9.908;2023-04-09T05:03:15;6.90;99.90
20364;DHT22;10340;53.664;9.908;2023-04-09T05:05:42;6.90;99.90
20364;DHT22;10340;53.664;9.908;2023-04-09T05:08:10;6.90;99.90
20364;DHT22;10340;53.664;9.908;2023-04-09T05:10:41;6.90;99.90
20364;DHT22;10340;53.664;9.908;2023-04-09T05:13:09;6.80;99.90
20364;DHT22;10340;53.664;9.908;2023-04-09T05:15:39;6.80;99.90
20364;DHT22;10340;53.664;9.908;2023-04-09T05:18:07;6.90;99.90
20364;DHT22;10340;53.664;9.908;2023-04-09T05:20:37;6.80;99.90
20364;DHT22;10340;53.664;9.908;2023-04-09T05:23:04;6.80;99.90
20364;DHT22;10340;53.664;9.908;2023-04-09T05:25:31;6.80;99.90
20364;DHT22;10340;53.664;9.908;2023-04-09T05:27:59;6.80;99.90
20364;DHT22;10340;53.664;9.908;2023-04-09T05:30:27;6.80;99.90
20364;DHT22;10340;53.664;9.908;2023-04-09T05:32:53;6.80;99.90
20364;DHT22;10340;53.664;9.908;2023-04-09T05:35:20;6.80;99.90
20364;DHT22;10340;53.664;9.908;2023-04-09T05:37:47;6.80;99.90
20364;DHT22;10340;53.664;9.908;2023-04-09T05:40:15;6.80;99.90
20364;DHT22;10340;53.664;9.908;2023-04-09T05:42:42;6.80;99.90
20364;DHT22;10340;53.664;9.908;2023-04-09T05:45:10;6.90;99.90
20364;DHT22;10340;53.664;9.908;2023-04-09T05:47:37;6.80;99.90
20364;DHT22;10340;53.664;9.908;2023-04-09T05:50:05;6.80;99.90
20364;DHT22;10340;53.664;9.908;2023-04-09T05:52:32;6.80;99.90
20364;DHT22;10340;53.664;9.908;2023-04-09T05:54:59;6.80;99.90
20364;DHT22;10340;53.664;9.908;2023-04-09T05:57:26;6.90;99.90
20364;DHT22;10340;53.664;9.908;2023-04-09T05:59:55;6.90;99.90
20364;DHT22;10340;53.664;9.908;2023-04-09T06:02:27;6.90;99.90
20364;DHT22;10340;53.664;9.908;2023-04-09T06:04:54;6.90;99.90
20364;DHT22;10340;53.664;9.908;2023-04-09T06:07:21;7.00;99.90
20364;DHT22;10340;53.664;9.908;2023-04-09T06:09:49;7.00;99.90
20364;DHT22;10340;53.664;9.908;2023-04-09T06:12:16;7.00;99.90
20364;DHT22;10340;53.664;9.908;2023-04-09T06:14:43;7.10;99.90
20364;DHT22;10340;53.664;9.908;2023-04-09T06:17:10;7.10;99.90
20364;DHT22;10340;53.664;9.908;2023-04-09T06:19:41;7.20;99.90
20364;DHT22;10340;53.664;9.908;2023-04-09T06:22:08;7.30;99.90
20364;DHT22;10340;53.664;9.908;2023-04-09T06:24:36;7.20;99.90
20364;DHT22;10340;53.664;9.908;2023-04-09T06:27:03;7.30;99.90
20364;DHT22;10340;53.664;9.908;2023-04-09T06:29:30;7.30;99.90
20364;DHT22;10340;53.664;9.908;2023-04-09T06:31:57;7.40;99.90
20364;DHT22;10340;53.664;9.908;2023-04-09T06:34:24;7.40;99.90
20364;DHT22;10340;53.664;9.908;2023-04-09T06:36:52;7.50;99.90
20364;DHT22;10340;53.664;9.908;2023-04-09T06:39:20;7.50;99.90
20364;DHT22;10340;53.664;9.908;2023-04-09T06:41:47;7.60;99.90
20364;DHT22;10340;53.664;9.908;2023-04-09T06:44:14;7.60;99.90
20364;DHT22;10340;53.664;9.908;2023-04-09T06:46:41;7.70;99.90
20364;DHT22;10340;53.664;9.908;2023-04-09T06:49:13;7.70;99.90
20364;DHT22;10340;53.664;9.908;2023-04-09T06:51:42;7.80;99.90
20364;DHT22;10340;53.664;9.908;2023-04-09T06:54:10;7.80;99.90
20364;DHT22;10340;53.664;9.908;2023-04-09T06:56:37;7.90;99.90
20364;DHT22;10340;53.664;9.908;2023-04-09T06:59:04;7.90;99.90
20364;DHT22;10340;53.664;9.908;2023-04-09T07:01:32;8.00;99.90
20364;DHT22;10340;53.664;9.908;2023-04-09T07:04:00;7.90;99.90
20364;DHT22;10340;53.664;9.908;2023-04-09T07:06:27;7.90;99.90
20364;DHT22;10340;53.664;9.908;2023-04-09T07:08:54;8.00;99.90
20364;DHT22;10340;53.664;9.908;2023-04-09T07:11:23;8.00;99.90
20364;DHT22;10340;53.664;9.908;2023-04-09T07:13:50;8.00;99.90
20364;DHT22;10340;53.664;9.908;2023-04-09T07:16:17;8.00;99.90
20364;DHT22;10340;53.664;9.908;2023-04-09T07:18:44;8.10;99.90
20364;DHT22;10340;53.664;9.908;2023-04-09T07:21:11;8.00;99.90
20364;DHT22;10340;53.664;9.908;2023-04-09T07:23:38;8.00;99.90
20364;DHT22;10340;53.664;9.908;2023-04-09T07:26:08;8.00;99.90
20364;DHT22;10340;53.664;9.908;2023-04-09T07:28:37;8.00;99.90
20364;DHT22;10340;53.664;9.908;2023-04-09T07:31:04;8.00;99.90
20364;DHT22;10340;53.664;9.908;2023-04-09T07:33:32;8.00;99.90
20364;DHT22;10340;53.664;9.908;2023-04-09T07:35:59;8.10;99.90
20364;DHT22;10340;53.664;9.908;2023-04-09T07:38:28;8.20;99.90
20364;DHT22;10340;53.664;9.908;2023-04-09T07:40:55;8.30;99.90
20364;DHT22;10340;53.664;9.908;2023-04-09T07:43:22;8.40;99.90
20364;DHT22;10340;53.664;9.908;2023-04-09T07:45:50;8.50;99.90
20364;DHT22;10340;53.664;9.908;2023-04-09T07:48:17;8.60;99.90
20364;DHT22;10340;53.664;9.908;2023-04-09T07:50:44;8.70;99.90
20364;DHT22;10340;53.664;9.908;2023-04-09T07:53:12;8.80;99.90
20364;DHT22;10340;53.664;9.908;2023-04-09T07:55:39;8.80;99.90
20364;DHT22;10340;53.664;9.908;2023-04-09T07:58:06;8.90;99.90
20364;DHT22;10340;53.664;9.908;2023-04-09T08:00:33;9.00;99.90
20364;DHT22;10340;53.664;9.908;2023-04-09T08:03:02;9.10;99.90
20364;DHT22;10340;53.664;9.908;2023-04-09T08:05:29;9.30;99.90
20364;DHT22;10340;53.664;9.908;2023-04-09T08:07:56;9.50;99.90
20364;DHT22;10340;53.664;9.908;2023-04-09T08:10:23;9.70;99.90
20364;DHT22;10340;53.664;9.908;2023-04-09T08:12:50;9.70;99.90
20364;DHT22;10340;53.664;9.908;2023-04-09T08:15:18;9.70;99.90
20364;DHT22;10340;53.664;9.908;2023-04-09T08:17:45;9.70;99.90
20364;DHT22;10340;53.664;9.908;2023-04-09T08:20:13;9.70;99.90
20364;DHT22;10340;53.664;9.908;2023-04-09T08:22:42;9.70;99.90
20364;DHT22;10340;53.664;9.908;2023-04-09T08:25:26;9.60;99.90
20364;DHT22;10340;53.664;9.908;2023-04-09T08:27:53;9.60;99.90
20364;DHT22;10340;53.664;9.908;2023-04-09T08:30:20;9.60;99.90
20364;DHT22;10340;53.664;9.908;2023-04-09T08:32:47;9.60;99.90
20364;DHT22;10340;53.664;9.908;2023-04-09T08:35:16;9.70;99.90
20364;DHT22;10340;53.664;9.908;2023-04-09T08:37:43;9.70;99.90
20364;DHT22;10340;53.664;9.908;2023-04-09T08:40:11;9.70;99.90
20364;DHT22;10340;53.664;9.908;2023-04-09T08:42:43;9.70;99.90
20364;DHT22;10340;53.664;9.908;2023-04-09T08:45:11;9.70;99.90
20364;DHT22;10340;53.664;9.908;2023-04-09T08:47:42;9.70;99.90
20364;DHT22;10340;53.664;9.908;2023-04-09T08:50:11;9.60;99.90
20364;DHT22;10340;53.664;9.908;2023-04-09T08:52:40;9.60;99.90
20364;DHT22;10340;53.664;9.908;2023-04-09T08:55:10;9.60;99.90
20364;DHT22;10340;53.664;9.908;2023-04-09T08:57:38;9.60;99.90
20364;DHT22;10340;53.664;9.908;2023-04-09T09:00:07;9.60;99.90
20364;DHT22;10340;53.664;9.908;2023-04-09T09:02:34;9.60;99.90
20364;DHT22;10340;53.664;9.908;2023-04-09T09:05:01;9.70;99.90
20364;DHT22;10340;53.664;9.908;2023-04-09T09:07:29;9.70;99.90
20364;DHT22;10340;53.664;9.908;2023-04-09T09:09:58;9.70;99.90
20364;DHT22;10340;53.664;9.908;2023-04-09T09:12:35;9.70;99.90
20364;DHT22;10340;53.664;9.908;2023-04-09T09:15:04;9.60;99.90
20364;DHT22;10340;53.664;9.908;2023-04-09T09:17:31;9.60;99.90
20364;DHT22;10340;53.664;9.908;2023-04-09T09:19:58;9.60;99.90
20364;DHT22;10340;53.664;9.908;2023-04-09T09:22:48;9.50;99.90
20364;DHT22;10340;53.664;9.908;2023-04-09T09:25:17;9.50;99.90
20364;DHT22;10340;53.664;9.908;2023-04-09T09:27:48;9.50;99.90
20364;DHT22;10340;53.664;9.908;2023-04-09T09:30:21;9.40;99.90
20364;DHT22;10340;53.664;9.908;2023-04-09T09:32:51;9.50;99.90
20364;DHT22;10340;53.664;9.908;2023-04-09T09:35:18;9.50;99.90
20364;DHT22;10340;53.664;9.908;2023-04-09T09:37:45;9.50;99.90
20364;DHT22;10340;53.664;9.908;2023-04-09T09:40:25;9.60;99.90
20364;DHT22;10340;53.664;9.908;2023-04-09T09:42:54;9.60;99.90
20364;DHT22;10340;53.664;9.908;2023-04-09T09:45:21;9.60;99.90
20364;DHT22;10340;53.664;9.908;2023-04-09T09:47:49;9.60;99.90
20364;DHT22;10340;53.664;9.908;2023-04-09T09:50:16;9.60;99.90
20364;DHT22;10340;53.664;9.908;2023-04-09T09:52:45;9.60;99.90
20364;DHT22;10340;53.664;9.908;2023-04-09T09:55:13;9.60;99.90
20364;DHT22;10340;53.664;9.908;2023-04-09T09:57:44;9.60;99.90
20364;DHT22;10340;53.664;9.908;2023-04-09T10:00:13;9.70;99.90
20364;DHT22;10340;53.664;9.908;2023-04-09T10:02:45;9.70;99.90
20364;DHT22;10340;53.664;9.908;2023-04-09T10:05:14;9.80;99.90
20364;DHT22;10340;53.664;9.908;2023-04-09T10:07:42;9.80;99.90
20364;DHT22;10340;53.664;9.908;2023-04-09T10:10:12;9.80;99.90
20364;DHT22;10340;53.664;9.908;2023-04-09T10:12:39;9.90;99.90
20364;DHT22;10340;53.664;9.908;2023-04-09T10:15:10;9.90;99.90
20364;DHT22;10340;53.664;9.908;2023-04-09T10:17:37;9.90;99.90
20364;DHT22;10340;53.664;9.908;2023-04-09T10:20:09;10.00;99.90
20364;DHT22;10340;53.664;9.908;2023-04-09T10:22:37;10.10;99.90
20364;DHT22;10340;53.664;9.908;2023-04-09T10:25:05;10.10;99.90
20364;DHT22;10340;53.664;9.908;2023-04-09T10:27:32;10.10;99.90
20364;DHT22;10340;53.664;9.908;2023-04-09T10:30:00;10.20;99.90
20364;DHT22;10340;53.664;9.908;2023-04-09T10:32:34;10.30;99.90
20364;DHT22;10340;53.664;9.908;2023-04-09T10:35:02;10.50;99.90
20364;DHT22;10340;53.664;9.908;2023-04-09T10:37:30;10.70;99.90
20364;DHT22;10340;53.664;9.908;2023-04-09T10:40:10;10.90;99.90
20364;DHT22;10340;53.664;9.908;2023-04-09T10:42:47;11.00;99.90
20364;DHT22;10340;53.664;9.908;2023-04-09T10:45:15;11.20;99.90
20364;DHT22;10340;53.664;9.908;2023-04-09T10:47:48;11.20;99.90
20364;DHT22;10340;53.664;9.908;2023-04-09T10:50:17;11.20;99.90
20364;DHT22;10340;53.664;9.908;2023-04-09T10:52:45;11.20;99.90
20364;DHT22;10340;53.664;9.908;2023-04-09T10:55:28;11.20;99.90
20364;DHT22;10340;53.664;9.908;2023-04-09T10:57:55;11.20;99.90
20364;DHT22;10340;53.664;9.908;2023-04-09T11:00:22;11.20;99.90
20364;DHT22;10340;53.664;9.908;2023-04-09T11:06:01;11.20;99.90
20364;DHT22;10340;53.664;9.908;2023-04-09T11:08:32;11.20;99.90
20364;DHT22;10340;53.664;9.908;2023-04-09T11:10:59;11.10;99.90
20364;DHT22;10340;53.664;9.908;2023-04-09T11:13:27;11.10;99.90
20364;DHT22;10340;53.664;9.908;2023-04-09T11:15:57;11.10;99.90
20364;DHT22;10340;53.664;9.908;2023-04-09T11:18:33;11.20;99.90
20364;DHT22;10340;53.664;9.908;2023-04-09T11:21:03;11.10;99.90
20364;DHT22;10340;53.664;9.908;2023-04-09T11:23:31;11.10;99.90
20364;DHT22;10340;53.664;9.908;2023-04-09T11:25:58;11.10;99.90
20364;DHT22;10340;53.664;9.908;2023-04-09T11:28:26;11.00;99.90
20364;DHT22;10340;53.664;9.908;2023-04-09T11:30:53;11.00;99.90
20364;DHT22;10340;53.664;9.908;2023-04-09T11:33:20;11.10;99.90
20364;DHT22;10340;53.664;9.908;2023-04-09T11:35:47;11.10;99.90
20364;DHT22;10340;53.664;9.908;2023-04-09T11:38:16;11.00;99.90
20364;DHT22;10340;53.664;9.908;2023-04-09T11:40:44;11.00;99.90
20364;DHT22;10340;53.664;9.908;2023-04-09T11:43:13;11.00;99.90
20364;DHT22;10340;53.664;9.908;2023-04-09T11:45:42;11.10;99.90
20364;DHT22;10340;53.664;9.908;2023-04-09T11:48:09;11.20;99.90
20364;DHT22;10340;53.664;9.908;2023-04-09T11:50:36;11.40;99.90
20364;DHT22;10340;53.664;9.908;2023-04-09T11:53:16;11.60;99.90
20364;DHT22;10340;53.664;9.908;2023-04-09T11:55:46;11.70;99.90
20364;DHT22;10340;53.664;9.908;2023-04-09T11:58:16;11.90;99.90
20364;DHT22;10340;53.664;9.908;2023-04-09T12:00:43;12.10;99.90
20364;DHT22;10340;53.664;9.908;2023-04-09T12:03:10;12.30;99.90
20364;DHT22;10340;53.664;9.908;2023-04-09T12:05:37;12.50;99.90
20364;DHT22;10340;53.664;9.908;2023-04-09T12:18:29;13.20;99.90
20364;DHT22;10340;53.664;9.908;2023-04-09T12:20:56;13.40;99.90
20364;DHT22;10340;53.664;9.908;2023-04-09T12:23:23;13.40;99.90
20364;DHT22;10340;53.664;9.908;2023-04-09T12:26:25;13.30;99.90
20364;DHT22;10340;53.664;9.908;2023-04-09T12:28:55;13.30;99.90
20364;DHT22;10340;53.664;9.908;2023-04-09T12:31:22;13.40;99.90
20364;DHT22;10340;53.664;9.908;2023-04-09T12:33:51;13.20;99.90
20364;DHT22;10340;53.664;9.908;2023-04-09T12:36:18;13.20;99.90
20364;DHT22;10340;53.664;9.908;2023-04-09T12:38:45;13.10;99.90
20364;DHT22;10340;53.664;9.908;2023-04-09T12:41:12;13.30;99.90
20364;DHT22;10340;53.664;9.908;2023-04-09T12:46:10;13.30;99.90
20364;DHT22;10340;53.664;9.908;2023-04-09T12:51:08;13.40;99.90
20364;DHT22;10340;53.664;9.908;2023-04-09T12:53:35;13.40;99.90
20364;DHT22;10340;53.664;9.908;2023-04-09T12:56:03;13.70;99.90
20364;DHT22;10340;53.664;9.908;2023-04-09T12:58:30;13.60;99.90
20364;DHT22;10340;53.664;9.908;2023-04-09T13:00:58;13.40;99.90
20364;DHT22;10340;53.664;9.908;2023-04-09T13:03:25;13.30;99.90
20364;DHT22;10340;53.664;9.908;2023-04-09T13:05:53;13.20;99.90
20364;DHT22;10340;53.664;9.908;2023-04-09T13:08:21;13.30;99.90
20364;DHT22;10340;53.664;9.908;2023-04-09T13:10:48;13.30;99.90
20364;DHT22;10340;53.664;9.908;2023-04-09T13:13:15;13.40;99.90
20364;DHT22;10340;53.664;9.908;2023-04-09T13:18:11;13.40;99.90
20364;DHT22;10340;53.664;9.908;2023-04-09T13:20:38;13.40;99.90
20364;DHT22;10340;53.664;9.908;2023-04-09T13:25:34;13.60;99.90
20364;DHT22;10340;53.664;9.908;2023-04-09T13:28:01;13.60;99.90
20364;DHT22;10340;53.664;9.908;2023-04-09T13:30:28;13.80;99.90
20364;DHT22;10340;53.664;9.908;2023-04-09T13:35:23;14.00;99.90
20364;DHT22;10340;53.664;9.908;2023-04-09T13:42:46;13.70;99.90
20364;DHT22;10340;53.664;9.908;2023-04-09T13:45:12;13.70;99.90
20364;DHT22;10340;53.664;9.908;2023-04-09T13:47:40;13.70;99.90
20364;DHT22;10340;53.664;9.908;2023-04-09T13:50:08;13.70;99.90
20364;DHT22;10340;53.664;9.908;2023-04-09T13:52:37;13.80;99.90
20364;DHT22;10340;53.664;9.908;2023-04-09T13:55:06;13.90;99.90
20364;DHT22;10340;53.664;9.908;2023-04-09T13:57:33;13.40;99.90
20364;DHT22;10340;53.664;9.908;2023-04-09T14:00:01;13.90;99.90
20364;DHT22;10340;53.664;9.908;2023-04-09T14:07:34;13.70;99.90
20364;DHT22;10340;53.664;9.908;2023-04-09T14:12:37;13.70;99.90
20364;DHT22;10340;53.664;9.908;2023-04-09T14:15:06;13.60;99.90
20364;DHT22;10340;53.664;9.908;2023-04-09T14:22:29;13.50;99.90
20364;DHT22;10340;53.664;9.908;2023-04-09T14:24:56;13.50;99.90
20364;DHT22;10340;53.664;9.908;2023-04-09T14:27:24;13.50;99.90
20364;DHT22;10340;53.664;9.908;2023-04-09T14:32:19;13.80;99.90
20364;DHT22;10340;53.664;9.908;2023-04-09T14:34:46;14.00;99.90
20364;DHT22;10340;53.664;9.908;2023-04-09T14:39:53;13.80;99.90
20364;DHT22;10340;53.664;9.908;2023-04-09T14:42:21;13.90;99.90
20364;DHT22;10340;53.664;9.908;2023-04-09T14:44:48;14.10;99.90
20364;DHT22;10340;53.664;9.908;2023-04-09T14:47:15;14.00;99.90
20364;DHT22;10340;53.664;9.908;2023-04-09T14:49:43;14.10;99.90
20364;DHT22;10340;53.664;9.908;2023-04-09T14:52:10;14.10;99.90
20364;DHT22;10340;53.664;9.908;2023-04-09T14:54:37;14.00;99.90
20364;DHT22;10340;53.664;9.908;2023-04-09T15:04:26;13.90;99.90
20364;DHT22;10340;53.664;9.908;2023-04-09T15:06:54;13.90;99.90
20364;DHT22;10340;53.664;9.908;2023-04-09T15:09:21;13.90;99.90
20364;DHT22;10340;53.664;9.908;2023-04-09T15:11:48;13.90;99.90
20364;DHT22;10340;53.664;9.908;2023-04-09T15:14:15;13.90;99.90
20364;DHT22;10340;53.664;9.908;2023-04-09T15:16:44;14.00;99.90
20364;DHT22;10340;53.664;9.908;2023-04-09T15:19:11;14.10;99.90
20364;DHT22;10340;53.664;9.908;2023-04-09T15:24:07;14.10;99.90
20364;DHT22;10340;53.664;9.908;2023-04-09T15:26:34;14.20;99.90
20364;DHT22;10340;53.664;9.908;2023-04-09T15:29:04;14.20;99.90
20364;DHT22;10340;53.664;9.908;2023-04-09T15:31:32;14.30;99.90
20364;DHT22;10340;53.664;9.908;2023-04-09T15:33:59;14.30;99.90
20364;DHT22;10340;53.664;9.908;2023-04-09T15:36:26;14.30;99.90
20364;DHT22;10340;53.664;9.908;2023-04-09T15:38:55;14.40;99.90
20364;DHT22;10340;53.664;9.908;2023-04-09T15:41:23;14.40;99.90
20364;DHT22;10340;53.664;9.908;2023-04-09T15:46:18;14.40;99.90
20364;DHT22;10340;53.664;9.908;2023-04-09T15:53:41;14.50;99.90
20364;DHT22;10340;53.664;9.908;2023-04-09T15:56:10;14.40;99.90
20364;DHT22;10340;53.664;9.908;2023-04-09T15:58:41;14.40;99.90
20364;DHT22;10340;53.664;9.908;2023-04-09T16:03:51;14.50;99.90
20364;DHT22;10340;53.664;9.908;2023-04-09T16:08:45;14.60;99.90
20364;DHT22;10340;53.664;9.908;2023-04-09T16:11:13;14.60;99.90
20364;DHT22;10340;53.664;9.908;2023-04-09T16:13:41;14.70;99.90
20364;DHT22;10340;53.664;9.908;2023-04-09T16:16:08;14.70;99.90
20364;DHT22;10340;53.664;9.908;2023-04-09T16:18:35;14.90;99.90
20364;DHT22;10340;53.664;9.908;2023-04-09T16:21:05;15.10;99.90
20364;DHT22;10340;53.664;9.908;2023-04-09T16:23:34;15.40;99.90
20364;DHT22;10340;53.664;9.908;2023-04-09T16:26:01;15.40;99.90
20364;DHT22;10340;53.664;9.908;2023-04-09T16:31:11;15.70;99.90
20364;DHT22;10340;53.664;9.908;2023-04-09T16:33:38;15.70;99.90
20364;DHT22;10340;53.664;9.908;2023-04-09T16:36:05;15.80;99.90
20364;DHT22;10340;53.664;9.908;2023-04-09T16:38:32;15.80;99.90
20364;DHT22;10340;53.664;9.908;2023-04-09T16:40:59;16.00;99.90
20364;DHT22;10340;53.664;9.908;2023-04-09T16:43:26;15.90;99.90
20364;DHT22;10340;53.664;9.908;2023-04-09T16:45:53;16.00;99.90
20364;DHT22;10340;53.664;9.908;2023-04-09T16:48:22;16.10;99.90
20364;DHT22;10340;53.664;9.908;2023-04-09T16:50:49;16.40;99.90
20364;DHT22;10340;53.664;9.908;2023-04-09T16:53:18;16.60;99.90
20364;DHT22;10340;53.664;9.908;2023-04-09T16:55:47;16.60;99.90
20364;DHT22;10340;53.664;9.908;2023-04-09T16:58:20;17.20;99.90
20364;DHT22;10340;53.664;9.908;2023-04-09T17:00:47;17.00;99.90